Aérodrome :
LOGIN :

S'inscrire | Disclaimer

   EN    FR    IT 

 










Légende :    VFR   VFR Marginal   IFR   IFR Intensif   IFR Très Intensif
Visi : 
Plafond : 
>= 8 km
>= 3000ft
5 à 8 km
1000 à 3000 ft
1500m à 5 km
500 à 1000 ft
800 à 1500m
200 à 500 ft
< 800m
< 200 ft
Symboles :   Orages  Brouillard  Fortes neiges  Fortes précipitations  Vent > 20 kt
SIGMETs :   Divers  Orages  Givrage  Turbulence  Onde Orograph.  Cendres Volcan.







- Altitude de l'aérodrome : 364 ft
- Voir les cartes d'approche


LFAQ - Albert Bray

DERNIER METAR :
  • 280630Z AUTO 25011KT 9999 BKN008 OVC012 16/15 Q0998 BECMG BKN030

METARs EXPIRÉS :
  • 280600Z AUTO 25010KT 9999 BKN008 OVC012 17/16 Q0998 TEMPO 3000 BR BECMG OVC010
  • 280530Z AUTO 26011KT 6000 OVC007 16/16 Q0998 TEMPO 3000 BR BECMG OVC010
  • 280500Z AUTO 25009KT 3100 BR OVC008 16/16 Q0998
  • 280430Z AUTO 26009KT 2600 BR OVC005 16/16 Q0998
  • 280400Z AUTO 26009KT 3700 BR OVC003 16/16 Q0998

TAF AMD TAF LFAQ
Valide du 28 à 06h jusqu'au 28 à 15h UTC


280616Z 2806/2815 26010KT 9999 BKN008
BECMG 2807/2810 BKN030
Pas de NOTAMs connus pour ce terrain.



MET'MAP, la Météo Aéronautique d'un coup d'oeil ! - Copyright ORBIFLY Décembre 2007 - Disclaimer

ORBIFLY MET'MAP TEAM :

Programmation & Développement : Alexandra Zaïnal
Conception & Développement : Baudouin d'Aumeries
Co-Programmation & Développement : Marc-Olivier Méhu
Soutien technique & logistique : Manuel Goepfert

Contact : metmap@orbifly.com




SOURCES & CREDITS :

   NOAA